createdAt,value
2023-01-29T00:00:12.691Z,96.55
2023-01-29T00:01:12.669Z,96.34
2023-01-29T00:02:12.705Z,96.03
2023-01-29T00:03:12.691Z,96.34
2023-01-29T00:04:12.596Z,96.51
2023-01-29T00:05:26.978Z,96.93
2023-01-29T00:06:14.612Z,96.72
2023-01-29T00:07:12.603Z,96.83
2023-01-29T00:08:12.553Z,95.98
2023-01-29T00:09:12.582Z,96.09
2023-01-29T00:10:12.549Z,96.19
2023-01-29T00:11:12.539Z,96.19
2023-01-29T00:12:12.555Z,95.87
2023-01-29T00:13:12.526Z,96.51
2023-01-29T00:14:12.507Z,96.93
2023-01-29T00:15:12.525Z,97.03
2023-01-29T00:16:12.534Z,96.83
2023-01-29T00:17:12.499Z,96.72
2023-01-29T00:18:12.485Z,96.19
2023-01-29T00:19:12.477Z,96.51
2023-01-29T00:20:12.432Z,96.09
2023-01-29T00:21:12.459Z,95.67
2023-01-29T00:22:12.450Z,94.82
2023-01-29T00:23:12.419Z,94.97
2023-01-29T00:24:12.500Z,94.23
2023-01-29T00:25:12.427Z,94.23
2023-01-29T00:26:12.370Z,94.44
2023-01-29T00:27:12.386Z,93.85
2023-01-29T00:28:12.390Z,93.70
2023-01-29T00:29:12.379Z,94.06
2023-01-29T00:30:12.346Z,94.06
2023-01-29T00:31:12.425Z,93.85
2023-01-29T00:32:12.424Z,94.48
2023-01-29T00:33:12.325Z,93.85
2023-01-29T00:34:12.306Z,94.48
2023-01-29T00:35:12.324Z,93.79
2023-01-29T00:36:12.312Z,93.68
2023-01-29T00:37:12.296Z,94.06
2023-01-29T00:38:12.253Z,93.79
2023-01-29T00:39:12.268Z,93.89
2023-01-29T00:40:12.274Z,93.68
2023-01-29T00:41:12.227Z,94.00
2023-01-29T00:42:12.261Z,93.37
2023-01-29T00:43:12.244Z,94.21
2023-01-29T00:44:12.191Z,94.53
2023-01-29T00:45:12.199Z,94.84
2023-01-29T00:46:12.238Z,95.48
2023-01-29T00:47:12.179Z,95.86
2023-01-29T00:48:12.163Z,96.59
2023-01-29T00:49:12.194Z,96.97
2023-01-29T00:50:12.134Z,96.72
2023-01-29T00:51:12.130Z,97.45
2023-01-29T00:52:12.167Z,97.41
2023-01-29T00:53:12.134Z,97.41
2023-01-29T00:54:12.099Z,97.41
2023-01-29T00:55:12.097Z,97.83
2023-01-29T00:56:12.103Z,98.32
2023-01-29T00:57:12.071Z,98.43
2023-01-29T00:58:12.080Z,98.63
2023-01-29T00:59:12.081Z,98.63
2023-01-29T01:00:12.027Z,98.63
2023-01-29T01:01:12.091Z,98.63
2023-01-29T01:02:12.091Z,98.00
2023-01-29T01:03:12.024Z,97.85
2023-01-29T01:04:12.001Z,97.11
2023-01-29T01:05:11.998Z,97.11
2023-01-29T01:06:11.968Z,96.59
2023-01-29T01:07:12.676Z,96.91
2023-01-29T01:08:11.961Z,96.55
2023-01-29T01:09:11.968Z,96.75
2023-01-29T01:10:11.948Z,96.91
2023-01-29T01:11:11.944Z,96.69
2023-01-29T01:12:11.918Z,96.55
2023-01-29T01:13:11.912Z,96.69
2023-01-29T01:14:11.921Z,96.55
2023-01-29T01:15:11.903Z,96.44
2023-01-29T01:16:11.886Z,96.33
2023-01-29T01:17:12.876Z,96.12
2023-01-29T01:18:11.850Z,96.12
2023-01-29T01:19:11.855Z,96.44
2023-01-29T01:20:11.844Z,96.29
2023-01-29T01:21:11.833Z,96.29
2023-01-29T01:22:11.824Z,96.19
2023-01-29T01:23:11.808Z,96.29
2023-01-29T01:24:11.839Z,96.19
2023-01-29T01:25:11.779Z,96.50
2023-01-29T01:26:11.779Z,96.19
2023-01-29T01:27:11.771Z,96.14
2023-01-29T01:28:11.754Z,96.19
2023-01-29T01:29:11.770Z,96.29
2023-01-29T01:30:11.741Z,96.25
2023-01-29T01:31:11.773Z,95.87
2023-01-29T01:32:11.717Z,96.03
2023-01-29T01:33:11.720Z,96.03
2023-01-29T01:34:11.687Z,95.83
2023-01-29T01:35:11.720Z,95.62
2023-01-29T01:36:11.681Z,95.72
2023-01-29T01:37:11.658Z,95.51
2023-01-29T01:38:11.654Z,95.57
2023-01-29T01:39:11.641Z,95.51
2023-01-29T01:40:11.643Z,95.51
2023-01-29T01:41:11.625Z,95.36
2023-01-29T01:42:11.619Z,95.40
2023-01-29T01:43:11.610Z,95.15
2023-01-29T01:44:11.595Z,95.09
2023-01-29T01:45:11.597Z,94.94
2023-01-29T01:46:11.630Z,94.88
2023-01-29T01:47:11.583Z,94.42
2023-01-29T01:48:11.558Z,94.25
2023-01-29T01:49:11.535Z,94.46
2023-01-29T01:50:11.533Z,94.14
2023-01-29T01:51:11.519Z,94.04
2023-01-29T01:52:11.510Z,94.35
2023-01-29T01:53:11.517Z,94.25
2023-01-29T01:54:11.487Z,94.14
2023-01-29T01:55:11.498Z,94.04
2023-01-29T01:56:11.482Z,94.14
2023-01-29T01:57:11.454Z,94.25
2023-01-29T01:58:11.447Z,94.46
2023-01-29T01:59:11.431Z,94.42
2023-01-29T02:00:11.447Z,94.67
2023-01-29T02:01:11.450Z,94.52
2023-01-29T02:02:11.470Z,94.42
2023-01-29T02:03:11.400Z,94.10
2023-01-29T02:04:11.384Z,94.42
2023-01-29T02:05:11.374Z,94.31
2023-01-29T02:06:11.386Z,94.21
2023-01-29T02:07:11.360Z,94.42
2023-01-29T02:08:11.337Z,94.31
2023-01-29T02:09:11.348Z,94.10
2023-01-29T02:10:11.321Z,93.79
2023-01-29T02:11:11.315Z,93.85
2023-01-29T02:12:11.296Z,94.06
2023-01-29T02:13:11.312Z,93.37
2023-01-29T02:14:11.301Z,93.57
2023-01-29T02:15:11.267Z,93.41
2023-01-29T02:16:11.287Z,93.47
2023-01-29T02:17:11.268Z,93.15
2023-01-29T02:18:11.258Z,93.15
2023-01-29T02:19:11.223Z,93.99
2023-01-29T02:20:11.218Z,93.89
2023-01-29T02:21:11.208Z,93.99
2023-01-29T02:22:11.222Z,93.99
2023-01-29T02:23:11.201Z,93.26
2023-01-29T02:24:11.281Z,93.37
2023-01-29T02:25:11.181Z,93.37
2023-01-29T02:26:11.161Z,93.26
2023-01-29T02:27:11.147Z,92.90
2023-01-29T02:28:11.138Z,93.47
2023-01-29T02:29:11.133Z,93.11
2023-01-29T02:30:11.120Z,93.47
2023-01-29T02:31:11.169Z,93.11
2023-01-29T02:32:11.087Z,93.74
2023-01-29T02:33:11.118Z,93.26
2023-01-29T02:34:12.084Z,93.37
2023-01-29T02:35:11.057Z,93.15
2023-01-29T02:36:11.063Z,93.37
2023-01-29T02:37:11.054Z,93.47
2023-01-29T02:38:11.033Z,93.32
2023-01-29T02:39:11.021Z,93.57
2023-01-29T02:40:11.039Z,93.47
2023-01-29T02:41:11.004Z,93.47
2023-01-29T02:42:10.981Z,93.26
2023-01-29T02:43:10.988Z,93.26
2023-01-29T02:44:10.982Z,93.37
2023-01-29T02:45:10.955Z,93.57
2023-01-29T02:46:11.063Z,93.26
2023-01-29T02:47:10.922Z,93.43
2023-01-29T02:48:10.920Z,92.90
2023-01-29T02:49:10.913Z,93.26
2023-01-29T02:50:10.895Z,93.37
2023-01-29T02:51:10.910Z,93.57
2023-01-29T02:52:10.880Z,93.32
2023-01-29T02:53:10.859Z,93.43
2023-01-29T02:54:10.860Z,93.22
2023-01-29T02:55:10.854Z,93.37
2023-01-29T02:56:10.841Z,93.32
2023-01-29T02:57:10.818Z,93.37
2023-01-29T02:58:10.806Z,93.15
2023-01-29T02:59:10.796Z,93.26
2023-01-29T03:00:10.794Z,93.47
2023-01-29T03:01:10.886Z,93.26
2023-01-29T03:02:10.804Z,93.22
2023-01-29T03:03:10.760Z,93.57
2023-01-29T03:04:10.752Z,93.22
2023-01-29T03:05:10.750Z,93.37
2023-01-29T03:06:10.729Z,93.47
2023-01-29T03:07:10.757Z,92.94
2023-01-29T03:08:10.701Z,93.43
2023-01-29T03:09:10.688Z,93.53
2023-01-29T03:10:10.699Z,93.32
2023-01-29T03:11:10.673Z,93.43
2023-01-29T03:12:10.663Z,93.53
2023-01-29T03:13:10.663Z,93.11
2023-01-29T03:14:10.634Z,93.22
2023-01-29T03:15:10.630Z,93.32
2023-01-29T03:16:10.661Z,93.32
2023-01-29T03:17:10.629Z,93.32
2023-01-29T03:18:10.609Z,93.43
2023-01-29T03:19:11.155Z,93.68
2023-01-29T03:20:10.589Z,93.57
2023-01-29T03:21:10.561Z,93.47
2023-01-29T03:22:10.568Z,93.01
2023-01-29T03:23:10.562Z,93.26
2023-01-29T03:24:10.551Z,93.11
2023-01-29T03:25:10.531Z,93.79
2023-01-29T03:26:10.533Z,94.10
2023-01-29T03:27:10.517Z,93.68
2023-01-29T03:28:10.514Z,94.21
2023-01-29T03:29:10.489Z,93.37
2023-01-29T03:30:10.470Z,94.21
2023-01-29T03:31:10.523Z,93.79
2023-01-29T03:32:10.483Z,93.79
2023-01-29T03:33:10.455Z,94.31
2023-01-29T03:34:10.439Z,94.52
2023-01-29T03:35:10.414Z,94.42
2023-01-29T03:36:10.405Z,94.42
2023-01-29T03:37:10.403Z,93.89
2023-01-29T03:38:10.387Z,94.21
2023-01-29T03:39:10.375Z,94.10
2023-01-29T03:40:10.367Z,93.89
2023-01-29T03:41:10.356Z,94.27
2023-01-29T03:42:10.360Z,93.79
2023-01-29T03:43:10.358Z,93.89
2023-01-29T03:44:10.315Z,93.79
2023-01-29T03:45:10.304Z,93.57
2023-01-29T03:46:10.348Z,93.26
2023-01-29T03:47:10.303Z,94.14
2023-01-29T03:48:10.279Z,94.21
2023-01-29T03:49:10.268Z,94.04
2023-01-29T03:50:10.257Z,94.21
2023-01-29T03:51:10.250Z,93.68
2023-01-29T03:52:10.261Z,93.93
2023-01-29T03:53:10.229Z,93.93
2023-01-29T03:54:10.217Z,93.93
2023-01-29T03:55:10.224Z,94.35
2023-01-29T03:56:10.200Z,94.50
2023-01-29T03:57:10.193Z,94.56
2023-01-29T03:58:10.230Z,94.35
2023-01-29T03:59:10.175Z,94.46
2023-01-29T04:00:10.158Z,94.14
2023-01-29T04:01:10.217Z,94.46
2023-01-29T04:02:10.143Z,94.04
2023-01-29T04:03:10.135Z,93.83
2023-01-29T04:04:10.186Z,93.51
2023-01-29T04:05:10.106Z,93.51
2023-01-29T04:06:10.227Z,94.04
2023-01-29T04:07:10.090Z,93.93
2023-01-29T04:08:10.081Z,94.08
2023-01-29T04:09:10.063Z,94.14
2023-01-29T04:10:10.073Z,93.93
2023-01-29T04:11:10.056Z,94.29
2023-01-29T04:12:10.031Z,94.40
2023-01-29T04:13:10.048Z,94.40
2023-01-29T04:14:10.031Z,93.87
2023-01-29T04:15:09.992Z,93.98
2023-01-29T04:16:10.028Z,94.44
2023-01-29T04:17:09.991Z,93.80
2023-01-29T04:18:09.990Z,93.87
2023-01-29T04:19:09.957Z,94.44
2023-01-29T04:20:09.950Z,94.44
2023-01-29T04:21:09.944Z,94.86
2023-01-29T04:22:09.938Z,94.96
2023-01-29T04:23:09.919Z,94.80
2023-01-29T04:24:09.916Z,94.80
2023-01-29T04:25:09.891Z,95.18
2023-01-29T04:26:09.887Z,95.11
2023-01-29T04:27:09.883Z,95.11
2023-01-29T04:28:09.860Z,95.11
2023-01-29T04:29:09.851Z,95.22
2023-01-29T04:30:09.839Z,95.53
2023-01-29T04:31:09.954Z,96.17
2023-01-29T04:32:09.840Z,96.06
2023-01-29T04:33:09.821Z,96.17
2023-01-29T04:34:09.818Z,95.95
2023-01-29T04:35:09.776Z,96.37
2023-01-29T04:36:09.791Z,95.85
2023-01-29T04:37:09.767Z,95.95
2023-01-29T04:38:09.765Z,96.06
2023-01-29T04:39:11.671Z,96.06
2023-01-29T04:40:10.751Z,95.95
2023-01-29T04:41:09.713Z,95.85
2023-01-29T04:42:09.715Z,96.27
2023-01-29T04:43:09.700Z,96.17
2023-01-29T04:44:10.714Z,96.37
2023-01-29T04:45:09.688Z,96.31
2023-01-29T04:46:09.691Z,96.42
2023-01-29T04:47:09.671Z,96.31
2023-01-29T04:48:09.657Z,96.42
2023-01-29T04:49:09.631Z,96.69
2023-01-29T04:50:09.645Z,96.95
2023-01-29T04:51:09.628Z,97.05
2023-01-29T04:52:09.614Z,96.53
2023-01-29T04:53:09.601Z,96.69
2023-01-29T04:54:09.580Z,96.73
2023-01-29T04:55:09.574Z,96.63
2023-01-29T04:56:09.554Z,96.95
2023-01-29T04:57:09.549Z,96.63
2023-01-29T04:58:09.553Z,96.53
2023-01-29T04:59:09.532Z,96.31
2023-01-29T05:00:09.525Z,96.00
2023-01-29T05:01:09.519Z,95.31
2023-01-29T05:02:09.513Z,94.67
2023-01-29T05:03:09.543Z,94.08
2023-01-29T05:04:09.504Z,94.89
2023-01-29T05:05:09.489Z,94.93
2023-01-29T05:06:09.460Z,94.40
2023-01-29T05:07:09.451Z,94.51
2023-01-29T05:08:09.434Z,94.29
2023-01-29T05:09:09.432Z,94.55
2023-01-29T05:10:09.419Z,94.34
2023-01-29T05:11:09.410Z,94.34
2023-01-29T05:12:09.400Z,94.44
2023-01-29T05:13:09.392Z,94.17
2023-01-29T05:14:09.394Z,94.27
2023-01-29T05:15:09.369Z,94.70
2023-01-29T05:16:09.405Z,94.17
2023-01-29T05:17:09.356Z,94.27
2023-01-29T05:18:09.344Z,93.85
2023-01-29T05:19:09.340Z,93.85
2023-01-29T05:20:09.325Z,94.70
2023-01-29T05:21:09.308Z,94.38
2023-01-29T05:22:09.322Z,94.70
2023-01-29T05:23:09.287Z,95.01
2023-01-29T05:24:09.299Z,94.90
2023-01-29T05:25:09.265Z,94.90
2023-01-29T05:26:09.269Z,95.12
2023-01-29T05:27:09.261Z,94.38
2023-01-29T05:28:09.232Z,94.64
2023-01-29T05:29:09.236Z,95.01
2023-01-29T05:30:09.215Z,95.22
2023-01-29T05:31:09.349Z,95.96
2023-01-29T05:32:09.209Z,95.75
2023-01-29T05:33:09.181Z,95.86
2023-01-29T05:34:09.167Z,95.86
2023-01-29T05:35:09.162Z,96.22
2023-01-29T05:36:09.163Z,96.91
2023-01-29T05:37:09.154Z,97.33
2023-01-29T05:38:09.140Z,97.29
2023-01-29T05:39:09.121Z,97.44
2023-01-29T05:40:09.125Z,98.77
2023-01-29T05:41:09.110Z,98.45
2023-01-29T05:42:09.094Z,98.66
2023-01-29T05:43:09.084Z,97.71
2023-01-29T05:44:09.064Z,97.39
2023-01-29T05:45:09.149Z,97.67
2023-01-29T05:46:09.050Z,97.39
2023-01-29T05:47:09.054Z,97.25
2023-01-29T05:48:09.049Z,97.19
2023-01-29T05:49:09.025Z,96.87
2023-01-29T05:50:09.004Z,96.72
2023-01-29T05:51:09.015Z,96.87
2023-01-29T05:52:09.005Z,96.93
2023-01-29T05:53:09.990Z,96.93
2023-01-29T05:54:08.973Z,97.03
2023-01-29T05:55:08.963Z,97.25
2023-01-29T05:56:09.955Z,97.25
2023-01-29T05:57:08.956Z,97.35
2023-01-29T05:58:08.943Z,97.14
2023-01-29T05:59:08.917Z,97.41
2023-01-29T06:00:08.950Z,97.31
2023-01-29T06:01:08.905Z,97.31
2023-01-29T06:02:08.951Z,97.73
2023-01-29T06:03:08.950Z,97.73
2023-01-29T06:04:08.867Z,97.94
2023-01-29T06:05:08.876Z,97.73
2023-01-29T06:06:08.853Z,97.63
2023-01-29T06:07:08.844Z,97.41
2023-01-29T06:08:08.839Z,97.41
2023-01-29T06:09:08.817Z,97.31
2023-01-29T06:10:08.803Z,97.89
2023-01-29T06:11:08.799Z,97.94
2023-01-29T06:12:08.785Z,97.37
2023-01-29T06:13:08.776Z,97.37
2023-01-29T06:14:08.768Z,97.47
2023-01-29T06:15:08.757Z,96.95
2023-01-29T06:16:08.801Z,96.95
2023-01-29T06:17:08.748Z,96.84
2023-01-29T06:18:08.733Z,96.84
2023-01-29T06:19:08.715Z,96.42
2023-01-29T06:20:08.703Z,96.53
2023-01-29T06:21:08.686Z,96.59
2023-01-29T06:22:08.688Z,96.69
2023-01-29T06:23:08.674Z,96.80
2023-01-29T06:24:08.693Z,97.01
2023-01-29T06:25:08.645Z,97.22
2023-01-29T06:26:08.662Z,96.59
2023-01-29T06:27:08.629Z,96.48
2023-01-29T06:28:08.613Z,96.27
2023-01-29T06:29:08.619Z,96.37
2023-01-29T06:30:08.604Z,96.42
2023-01-29T06:31:24.344Z,96.37
2023-01-29T06:32:10.624Z,96.27
2023-01-29T06:33:08.575Z,96.59
2023-01-29T06:34:08.576Z,96.75
2023-01-29T06:35:08.552Z,96.27
2023-01-29T06:36:08.540Z,95.85
2023-01-29T06:37:08.527Z,96.27
2023-01-29T06:38:08.514Z,96.48
2023-01-29T06:39:08.514Z,95.95
2023-01-29T06:40:08.497Z,96.06
2023-01-29T06:41:08.494Z,96.17
2023-01-29T06:42:08.477Z,95.91
2023-01-29T06:43:08.471Z,96.33
2023-01-29T06:44:08.466Z,96.06
2023-01-29T06:45:08.447Z,95.95
2023-01-29T06:46:08.450Z,96.06
2023-01-29T06:47:08.424Z,95.64
2023-01-29T06:48:08.425Z,95.91
2023-01-29T06:49:08.407Z,96.06
2023-01-29T06:50:08.399Z,95.85
2023-01-29T06:51:08.382Z,95.95
2023-01-29T06:52:08.370Z,95.95
2023-01-29T06:53:08.375Z,95.95
2023-01-29T06:54:08.362Z,96.69
2023-01-29T06:55:08.347Z,96.27
2023-01-29T06:56:08.330Z,96.37
2023-01-29T06:57:08.326Z,96.17
2023-01-29T06:58:08.307Z,96.27
2023-01-29T06:59:08.301Z,96.17
2023-01-29T07:00:08.304Z,96.27
2023-01-29T07:01:08.328Z,96.27
2023-01-29T07:02:08.294Z,96.17
2023-01-29T07:03:08.245Z,96.59
2023-01-29T07:04:08.254Z,96.59
2023-01-29T07:05:08.223Z,96.48
2023-01-29T07:06:08.232Z,96.27
2023-01-29T07:07:08.218Z,96.37
2023-01-29T07:08:08.197Z,96.27
2023-01-29T07:09:08.209Z,96.27
2023-01-29T07:10:08.193Z,95.91
2023-01-29T07:11:08.164Z,96.12
2023-01-29T07:12:08.151Z,96.33
2023-01-29T07:13:08.146Z,96.65
2023-01-29T07:14:08.136Z,96.44
2023-01-29T07:15:08.131Z,95.91
2023-01-29T07:16:08.218Z,95.91
2023-01-29T07:17:08.154Z,95.60
2023-01-29T07:18:08.092Z,95.49
2023-01-29T07:19:08.075Z,95.81
2023-01-29T07:20:08.088Z,95.70
2023-01-29T07:21:08.061Z,96.12
2023-01-29T07:22:08.059Z,95.70
2023-01-29T07:23:40.522Z,95.39
2023-01-29T07:24:08.073Z,95.60
2023-01-29T07:25:08.055Z,95.70
2023-01-29T07:26:08.014Z,96.02
2023-01-29T07:27:09.046Z,95.81
2023-01-29T07:28:08.037Z,95.45
2023-01-29T07:29:07.975Z,95.34
2023-01-29T07:30:07.989Z,95.40
2023-01-29T07:31:08.082Z,95.34
2023-01-29T07:32:08.037Z,95.20
2023-01-29T07:33:07.945Z,95.20
2023-01-29T07:34:07.989Z,94.88
2023-01-29T07:35:07.938Z,94.67
2023-01-29T07:36:07.905Z,94.25
2023-01-29T07:37:07.937Z,94.78
2023-01-29T07:38:07.910Z,94.35
2023-01-29T07:39:07.875Z,94.56
2023-01-29T07:40:07.886Z,94.29
2023-01-29T07:41:07.898Z,93.72
2023-01-29T07:42:07.853Z,94.25
2023-01-29T07:43:07.839Z,94.08
2023-01-29T07:44:07.838Z,93.76
2023-01-29T07:45:07.817Z,94.35
2023-01-29T07:46:07.859Z,94.35
2023-01-29T07:47:07.805Z,94.40
2023-01-29T07:48:07.807Z,93.87
2023-01-29T07:49:07.794Z,93.83
2023-01-29T07:50:07.770Z,93.55
2023-01-29T07:51:07.769Z,93.83
2023-01-29T07:52:07.749Z,94.25
2023-01-29T07:53:07.755Z,94.40
2023-01-29T07:54:07.745Z,94.60
2023-01-29T07:55:07.697Z,93.87
2023-01-29T07:56:07.704Z,94.08
2023-01-29T07:57:07.713Z,94.71
2023-01-29T07:58:07.704Z,94.78
2023-01-29T07:59:07.670Z,94.08
2023-01-29T08:00:07.667Z,94.40
2023-01-29T08:01:07.719Z,94.60
2023-01-29T08:02:07.699Z,94.67
2023-01-29T08:03:07.623Z,94.67
2023-01-29T08:04:07.640Z,94.42
2023-01-29T08:05:07.641Z,94.67
2023-01-29T08:06:07.600Z,94.42
2023-01-29T08:07:07.574Z,93.37
2023-01-29T08:08:08.072Z,93.89
2023-01-29T08:09:08.556Z,93.26
2023-01-29T08:10:07.562Z,93.89
2023-01-29T08:11:07.562Z,93.26
2023-01-29T08:12:07.538Z,93.22
2023-01-29T08:13:07.522Z,93.37
2023-01-29T08:14:07.513Z,93.47
2023-01-29T08:15:07.540Z,93.53
2023-01-29T08:16:07.598Z,93.53
2023-01-29T08:17:07.515Z,93.47
2023-01-29T08:18:07.501Z,93.05
2023-01-29T08:19:07.453Z,93.47
2023-01-29T08:20:07.447Z,93.63
2023-01-29T08:21:07.472Z,93.15
2023-01-29T08:22:07.433Z,93.89
2023-01-29T08:23:07.429Z,93.99
2023-01-29T08:24:07.438Z,93.99
2023-01-29T08:25:20.919Z,93.83
2023-01-29T08:26:09.410Z,94.52
2023-01-29T08:27:07.395Z,94.58
2023-01-29T08:28:07.377Z,93.37
2023-01-29T08:29:07.355Z,93.99
2023-01-29T08:30:07.365Z,94.17
2023-01-29T08:31:07.381Z,93.37
2023-01-29T08:32:07.346Z,94.27
2023-01-29T08:33:07.311Z,93.74
2023-01-29T08:34:07.296Z,93.63
2023-01-29T08:35:07.319Z,93.28
2023-01-29T08:36:07.318Z,93.49
2023-01-29T08:37:07.259Z,93.59
2023-01-29T08:38:07.268Z,93.59
2023-01-29T08:39:07.268Z,92.96
2023-01-29T08:40:07.221Z,91.97
2023-01-29T08:41:07.268Z,92.54
2023-01-29T08:42:07.217Z,91.77
2023-01-29T08:43:09.237Z,91.87
2023-01-29T08:44:08.195Z,91.94
2023-01-29T08:45:07.195Z,91.45
2023-01-29T08:46:07.334Z,90.89
2023-01-29T08:47:07.169Z,91.09
2023-01-29T08:48:07.167Z,90.67
2023-01-29T08:49:07.147Z,90.47
2023-01-29T08:50:07.145Z,90.67
2023-01-29T08:51:07.151Z,90.78
2023-01-29T08:52:07.119Z,90.61
2023-01-29T08:53:07.103Z,90.61
2023-01-29T08:54:07.087Z,91.14
2023-01-29T08:55:07.103Z,91.56
2023-01-29T08:56:07.052Z,90.99
2023-01-29T08:57:07.091Z,91.20
2023-01-29T08:58:07.063Z,90.78
2023-01-29T08:59:07.038Z,90.78
2023-01-29T09:00:07.039Z,90.47
2023-01-29T09:01:07.086Z,90.57
2023-01-29T09:02:07.035Z,90.78
2023-01-29T09:03:06.985Z,90.64
2023-01-29T09:04:07.011Z,90.25
2023-01-29T09:05:07.012Z,90.15
2023-01-29T09:06:06.983Z,90.15
2023-01-29T09:07:06.956Z,90.15
2023-01-29T09:08:06.961Z,89.79
2023-01-29T09:09:06.966Z,89.48
2023-01-29T09:10:06.935Z,89.69
2023-01-29T09:11:06.920Z,89.48
2023-01-29T09:12:06.922Z,89.21
2023-01-29T09:13:06.892Z,89.48
2023-01-29T09:14:06.900Z,89.37
2023-01-29T09:15:06.892Z,89.44
2023-01-29T09:16:06.892Z,88.71
2023-01-29T09:17:06.858Z,88.92
2023-01-29T09:18:06.848Z,89.19
2023-01-29T09:19:06.875Z,88.67
2023-01-29T09:20:06.815Z,88.14
2023-01-29T09:21:06.842Z,87.09
2023-01-29T09:22:06.816Z,88.71
2023-01-29T09:23:06.799Z,88.87
2023-01-29T09:24:06.795Z,88.67
2023-01-29T09:25:06.791Z,87.62
2023-01-29T09:26:06.767Z,87.55
2023-01-29T09:27:06.743Z,88.60
2023-01-29T09:28:06.759Z,87.09
2023-01-29T09:29:06.760Z,87.76
2023-01-29T09:30:06.712Z,87.76
2023-01-29T09:31:06.853Z,87.59
2023-01-29T09:32:07.046Z,87.91
2023-01-29T09:33:06.686Z,87.87
2023-01-29T09:34:06.680Z,87.76
2023-01-29T09:35:06.685Z,88.18
2023-01-29T09:36:06.633Z,88.18
2023-01-29T09:37:06.658Z,87.51
2023-01-29T09:38:06.680Z,87.93
2023-01-29T09:39:06.622Z,87.09
2023-01-29T09:40:06.601Z,86.11
2023-01-29T09:41:06.620Z,86.95
2023-01-29T09:42:06.631Z,86.46
2023-01-29T09:43:06.576Z,87.24
2023-01-29T09:44:06.591Z,87.76
2023-01-29T09:45:06.551Z,87.97
2023-01-29T09:46:06.581Z,86.99
2023-01-29T09:47:06.566Z,87.47
2023-01-29T09:48:06.548Z,87.16
2023-01-29T09:49:06.495Z,87.05
2023-01-29T09:50:06.525Z,86.11
2023-01-29T09:51:06.508Z,86.38
2023-01-29T09:52:06.465Z,86.11
2023-01-29T09:53:06.494Z,85.69
2023-01-29T09:54:06.488Z,86.25
2023-01-29T09:55:06.430Z,86.53
2023-01-29T09:56:06.454Z,86.95
2023-01-29T09:57:06.460Z,87.12
2023-01-29T09:58:06.451Z,86.07
2023-01-29T09:59:06.439Z,85.73
2023-01-29T10:00:06.426Z,87.26
2023-01-29T10:01:06.470Z,86.15
2023-01-29T10:02:06.440Z,86.57
2023-01-29T10:04:06.434Z,87.24
2023-01-29T10:05:06.345Z,86.51
2023-01-29T10:06:06.338Z,86.99
2023-01-29T10:07:06.337Z,86.95
2023-01-29T10:08:06.329Z,86.74
2023-01-29T10:09:06.290Z,85.94
2023-01-29T10:10:06.303Z,86.00
2023-01-29T10:11:06.327Z,85.94
2023-01-29T10:12:06.281Z,86.63
2023-01-29T10:13:06.254Z,86.11
2023-01-29T10:14:06.287Z,85.80
2023-01-29T10:15:06.269Z,86.15
2023-01-29T10:16:06.225Z,86.36
2023-01-29T10:17:06.360Z,86.15
2023-01-29T10:18:06.237Z,86.15
2023-01-29T10:19:06.185Z,86.19
2023-01-29T10:20:06.190Z,86.88
2023-01-29T10:21:06.212Z,86.99
2023-01-29T10:22:06.197Z,86.61
2023-01-29T10:23:06.185Z,86.51
2023-01-29T10:24:06.173Z,87.24
2023-01-29T10:25:06.146Z,86.99
2023-01-29T10:26:06.150Z,87.09
2023-01-29T10:27:06.140Z,86.19
2023-01-29T10:28:06.131Z,86.63
2023-01-29T10:29:06.097Z,85.94
2023-01-29T10:30:06.089Z,86.57
2023-01-29T10:31:06.207Z,86.46
2023-01-29T10:32:06.291Z,87.09
2023-01-29T10:33:06.102Z,86.99
2023-01-29T10:34:06.054Z,86.32
2023-01-29T10:35:06.043Z,85.80
2023-01-29T10:36:06.019Z,85.90
2023-01-29T10:37:06.036Z,85.65
2023-01-29T10:38:06.053Z,85.44
2023-01-29T10:39:05.984Z,85.55
2023-01-29T10:40:05.983Z,85.24
2023-01-29T10:41:05.992Z,85.02
2023-01-29T10:42:05.976Z,84.61
2023-01-29T10:43:05.957Z,84.71
2023-01-29T10:44:05.958Z,85.24
2023-01-29T10:45:05.966Z,85.02
2023-01-29T10:46:05.945Z,85.34
2023-01-29T10:47:05.962Z,85.02
2023-01-29T10:48:06.929Z,84.99
2023-01-29T10:49:05.908Z,84.56
2023-01-29T10:50:05.897Z,84.15
2023-01-29T10:51:05.899Z,84.50
2023-01-29T10:52:05.880Z,84.78
2023-01-29T10:53:05.841Z,84.67
2023-01-29T10:54:05.847Z,84.63
2023-01-29T10:55:05.875Z,84.22
2023-01-29T10:56:17.387Z,83.65
2023-01-29T10:57:07.840Z,83.27
2023-01-29T10:58:05.834Z,83.80
2023-01-29T10:59:05.799Z,84.32
2023-01-29T11:00:05.784Z,84.11
2023-01-29T11:01:05.831Z,84.22
2023-01-29T11:02:05.779Z,83.90
2023-01-29T11:03:10.134Z,83.80
2023-01-29T11:04:07.804Z,83.38
2023-01-29T11:05:05.773Z,83.38
2023-01-29T11:06:05.735Z,83.48
2023-01-29T11:07:05.753Z,83.90
2023-01-29T11:08:05.707Z,84.00
2023-01-29T11:09:05.684Z,83.65
2023-01-29T11:10:05.692Z,83.65
2023-01-29T11:11:05.693Z,84.00
2023-01-29T11:12:05.682Z,84.63
2023-01-29T11:13:05.645Z,84.84
2023-01-29T11:14:05.641Z,84.59
2023-01-29T11:15:05.669Z,84.11
2023-01-29T11:16:05.642Z,84.07
2023-01-29T11:17:05.669Z,83.90
2023-01-29T11:18:05.625Z,84.11
2023-01-29T11:19:05.611Z,83.76
2023-01-29T11:20:05.571Z,83.90
2023-01-29T11:21:05.589Z,84.17
2023-01-29T11:22:05.585Z,83.97
2023-01-29T11:23:07.561Z,83.40
2023-01-29T11:24:06.555Z,83.55
2023-01-29T11:25:05.541Z,83.27
2023-01-29T11:26:05.541Z,83.23
2023-01-29T11:27:05.491Z,83.80
2023-01-29T11:28:05.531Z,83.72
2023-01-29T11:29:05.503Z,82.82
2023-01-29T11:30:05.474Z,83.34
2023-01-29T11:31:05.646Z,84.28
2023-01-29T11:32:05.478Z,84.49
2023-01-29T11:33:05.484Z,84.28
2023-01-29T11:34:05.439Z,84.11
2023-01-29T11:35:05.480Z,84.49
2023-01-29T11:36:05.421Z,84.24
2023-01-29T11:37:05.424Z,83.62
2023-01-29T11:38:05.430Z,83.97
2023-01-29T11:39:05.377Z,84.07
2023-01-29T11:40:05.390Z,84.42
2023-01-29T11:41:05.414Z,85.26
2023-01-29T11:42:05.386Z,84.91
2023-01-29T11:43:05.345Z,84.53
2023-01-29T11:44:05.372Z,84.49
2023-01-29T11:45:05.368Z,84.17
2023-01-29T11:46:05.594Z,84.17
2023-01-29T11:47:05.317Z,84.24
2023-01-29T11:48:05.324Z,83.62
2023-01-29T11:49:14.309Z,83.16
2023-01-29T11:50:07.324Z,83.12
2023-01-29T11:51:06.438Z,82.39
2023-01-29T11:52:06.292Z,81.83
2023-01-29T11:53:05.249Z,81.93
2023-01-29T11:54:05.254Z,81.16
2023-01-29T11:55:05.252Z,81.06
2023-01-29T11:56:05.231Z,80.85
2023-01-29T11:57:05.205Z,80.40
2023-01-29T11:58:05.195Z,79.88
2023-01-29T11:59:05.228Z,79.81
2023-01-29T12:00:05.166Z,80.23
2023-01-29T12:01:05.186Z,80.19
2023-01-29T12:02:05.165Z,80.30
2023-01-29T12:03:05.155Z,79.67
2023-01-29T12:04:05.192Z,79.36
2023-01-29T12:05:05.155Z,79.57
2023-01-29T12:06:05.163Z,79.50
2023-01-29T12:07:05.117Z,80.47
2023-01-29T12:08:05.110Z,81.13
2023-01-29T12:09:05.074Z,81.21
2023-01-29T12:10:05.081Z,80.96
2023-01-29T12:11:05.089Z,81.38
2023-01-29T12:12:05.074Z,81.06
2023-01-29T12:13:05.032Z,80.23
2023-01-29T12:14:05.050Z,80.44
2023-01-29T12:15:05.042Z,80.51
2023-01-29T12:16:05.110Z,79.88
2023-01-29T12:17:04.999Z,79.57
2023-01-29T12:18:04.993Z,79.05
2023-01-29T12:19:05.016Z,79.25
2023-01-29T12:20:04.980Z,79.63
2023-01-29T12:21:04.986Z,78.80
2023-01-29T12:22:04.995Z,79.08
2023-01-29T12:23:04.970Z,78.45
2023-01-29T12:24:04.917Z,76.96
2023-01-29T12:25:04.959Z,78.00
2023-01-29T12:26:04.927Z,77.27
2023-01-29T12:27:04.880Z,77.23
2023-01-29T12:28:04.925Z,76.82
2023-01-29T12:29:04.885Z,76.75
2023-01-29T12:30:05.877Z,77.03
2023-01-29T12:31:04.885Z,76.02
2023-01-29T12:32:04.884Z,76.78
2023-01-29T12:33:04.841Z,77.27
2023-01-29T12:34:04.840Z,77.48
2023-01-29T12:35:04.830Z,77.48
2023-01-29T12:36:04.824Z,76.75
2023-01-29T12:37:04.796Z,76.75
2023-01-29T12:38:04.786Z,76.86
2023-01-29T12:39:04.806Z,76.65
2023-01-29T12:40:04.751Z,76.65
2023-01-29T12:41:04.792Z,76.72
2023-01-29T12:42:04.790Z,76.72
2023-01-29T12:43:04.717Z,76.86
2023-01-29T12:44:04.730Z,76.75
2023-01-29T12:45:04.757Z,77.27
2023-01-29T12:46:04.718Z,77.06
2023-01-29T12:47:04.737Z,77.17
2023-01-29T12:48:04.703Z,77.41
2023-01-29T12:49:04.703Z,77.62
2023-01-29T12:50:04.692Z,78.77
2023-01-29T12:51:04.673Z,78.77
2023-01-29T12:52:04.656Z,78.97
2023-01-29T12:53:04.665Z,78.10